Aviation Digital Data Service (ADDS)

Output produced by METARs form (1521 UTC 23 January 2019)
found at http://www.aviationweather.gov/metar/data/
 
Forecast for: ZWSH (KASHI , CN)
Text: TAF ZWSH 230906Z 2312/2412 32004MPS 5000 FU SCT040 TXM02/09Z TNM09/00Z
Forecast period: 1200 UTC 23 January 2019 to 0500 UTC 24 January 2019
Forecast type: FROM: standard forecast or significant change
Winds: from the NW (320 degrees) at 9 MPH (8 knots; 4.1 m/s)
Visibility: 3 miles (5 km)
Ceiling: at least 12,000 feet AGL
Clouds: scattered clouds at 4000 feet AGL
Weather: FU  (smoke)
Text: BECMG 2405/2406 11004MPS
Forecast period: 0500 to 1200 UTC 24 January 2019
Forecast type: BECOMING: Conditions expected to become as follows by 0600 UTC 24 January 2019
Winds: from the ESE (110 degrees) at 9 MPH (8 knots; 4.1 m/s)
Visibility: 3 miles (5 km)
Ceiling: at least 12,000 feet AGL
Clouds: scattered clouds at 4000 feet AGL
Weather: FU  (smoke)